sensor_id;sensor_type;location;lat;lon;timestamp;temperature;humidity
1568;DHT22;777;47.156;8.326;2023-02-22T00:00:33;4.20;99.90
1568;DHT22;777;47.156;8.326;2023-02-22T00:03:09;4.20;99.90
1568;DHT22;777;47.156;8.326;2023-02-22T00:05:38;4.20;99.90
1568;DHT22;777;47.156;8.326;2023-02-22T00:08:05;4.20;99.90
1568;DHT22;777;47.156;8.326;2023-02-22T00:10:34;4.20;99.90
1568;DHT22;777;47.156;8.326;2023-02-22T00:13:03;4.20;99.90
1568;DHT22;777;47.156;8.326;2023-02-22T00:15:31;4.10;99.90
1568;DHT22;777;47.156;8.326;2023-02-22T00:17:58;4.10;99.90
1568;DHT22;777;47.156;8.326;2023-02-22T00:20:26;4.00;99.90
1568;DHT22;777;47.156;8.326;2023-02-22T00:22:54;4.10;99.90
1568;DHT22;777;47.156;8.326;2023-02-22T00:25:23;4.00;99.90
1568;DHT22;777;47.156;8.326;2023-02-22T00:27:51;4.00;99.90
1568;DHT22;777;47.156;8.326;2023-02-22T00:30:20;4.00;99.90
1568;DHT22;777;47.156;8.326;2023-02-22T00:32:48;3.90;99.90
1568;DHT22;777;47.156;8.326;2023-02-22T00:35:17;4.00;99.90
1568;DHT22;777;47.156;8.326;2023-02-22T00:37:47;4.00;99.90
1568;DHT22;777;47.156;8.326;2023-02-22T00:40:16;4.00;99.90
1568;DHT22;777;47.156;8.326;2023-02-22T00:42:44;4.00;99.90
1568;DHT22;777;47.156;8.326;2023-02-22T00:45:13;4.00;99.90
1568;DHT22;777;47.156;8.326;2023-02-22T00:47:41;3.80;99.90
1568;DHT22;777;47.156;8.326;2023-02-22T00:50:08;3.80;99.90
1568;DHT22;777;47.156;8.326;2023-02-22T00:52:36;3.80;99.90
1568;DHT22;777;47.156;8.326;2023-02-22T00:55:04;3.80;99.90
1568;DHT22;777;47.156;8.326;2023-02-22T00:57:33;3.70;99.90
1568;DHT22;777;47.156;8.326;2023-02-22T01:00:00;3.80;99.90
1568;DHT22;777;47.156;8.326;2023-02-22T01:02:38;3.80;99.90
1568;DHT22;777;47.156;8.326;2023-02-22T01:05:06;3.80;99.90
1568;DHT22;777;47.156;8.326;2023-02-22T01:07:33;3.70;99.90
1568;DHT22;777;47.156;8.326;2023-02-22T01:10:00;3.70;99.90
1568;DHT22;777;47.156;8.326;2023-02-22T01:12:28;3.50;99.90
1568;DHT22;777;47.156;8.326;2023-02-22T01:14:56;3.30;99.90
1568;DHT22;777;47.156;8.326;2023-02-22T01:17:24;3.30;99.90
1568;DHT22;777;47.156;8.326;2023-02-22T01:19:52;3.20;99.90
1568;DHT22;777;47.156;8.326;2023-02-22T01:22:20;3.20;99.90
1568;DHT22;777;47.156;8.326;2023-02-22T01:24:47;3.20;99.90
1568;DHT22;777;47.156;8.326;2023-02-22T01:27:15;3.10;99.90
1568;DHT22;777;47.156;8.326;2023-02-22T01:29:42;3.20;99.90
1568;DHT22;777;47.156;8.326;2023-02-22T01:32:11;3.20;99.90
1568;DHT22;777;47.156;8.326;2023-02-22T01:34:38;3.20;99.90
1568;DHT22;777;47.156;8.326;2023-02-22T01:37:06;3.20;99.90
1568;DHT22;777;47.156;8.326;2023-02-22T01:39:33;3.30;99.90
1568;DHT22;777;47.156;8.326;2023-02-22T01:42:00;3.30;99.90
1568;DHT22;777;47.156;8.326;2023-02-22T01:44:29;3.30;99.90
1568;DHT22;777;47.156;8.326;2023-02-22T01:46:59;3.40;99.90
1568;DHT22;777;47.156;8.326;2023-02-22T01:49:31;3.30;99.90
1568;DHT22;777;47.156;8.326;2023-02-22T01:52:02;3.30;99.90
1568;DHT22;777;47.156;8.326;2023-02-22T01:54:32;3.30;99.90
1568;DHT22;777;47.156;8.326;2023-02-22T01:57:07;3.20;99.90
1568;DHT22;777;47.156;8.326;2023-02-22T01:59:36;3.20;99.90
1568;DHT22;777;47.156;8.326;2023-02-22T02:02:04;3.20;99.90
1568;DHT22;777;47.156;8.326;2023-02-22T02:04:33;3.10;99.90
1568;DHT22;777;47.156;8.326;2023-02-22T02:07:04;3.00;99.90
1568;DHT22;777;47.156;8.326;2023-02-22T02:09:36;2.90;99.90
1568;DHT22;777;47.156;8.326;2023-02-22T02:12:07;2.80;99.90
1568;DHT22;777;47.156;8.326;2023-02-22T02:14:35;2.80;99.90
1568;DHT22;777;47.156;8.326;2023-02-22T02:17:06;2.90;99.90
1568;DHT22;777;47.156;8.326;2023-02-22T02:19:43;2.70;99.90
1568;DHT22;777;47.156;8.326;2023-02-22T02:22:22;2.60;99.90
1568;DHT22;777;47.156;8.326;2023-02-22T02:28:16;2.70;99.90
1568;DHT22;777;47.156;8.326;2023-02-22T02:31:06;2.80;99.90
1568;DHT22;777;47.156;8.326;2023-02-22T02:33:42;2.80;99.90
1568;DHT22;777;47.156;8.326;2023-02-22T02:36:13;2.60;99.90
1568;DHT22;777;47.156;8.326;2023-02-22T02:38:45;2.60;99.90
1568;DHT22;777;47.156;8.326;2023-02-22T02:41:16;2.60;99.90
1568;DHT22;777;47.156;8.326;2023-02-22T02:43:49;2.60;99.90
1568;DHT22;777;47.156;8.326;2023-02-22T02:46:21;2.50;99.90
1568;DHT22;777;47.156;8.326;2023-02-22T02:48:53;2.40;99.90
1568;DHT22;777;47.156;8.326;2023-02-22T02:51:24;2.40;99.90
1568;DHT22;777;47.156;8.326;2023-02-22T02:53:53;2.30;99.90
1568;DHT22;777;47.156;8.326;2023-02-22T02:56:22;2.40;99.90
1568;DHT22;777;47.156;8.326;2023-02-22T02:58:51;2.40;99.90
1568;DHT22;777;47.156;8.326;2023-02-22T03:01:28;2.50;99.90
1568;DHT22;777;47.156;8.326;2023-02-22T03:04:15;2.40;99.90
1568;DHT22;777;47.156;8.326;2023-02-22T03:07:04;2.50;99.90
1568;DHT22;777;47.156;8.326;2023-02-22T03:09:47;2.50;99.90
1568;DHT22;777;47.156;8.326;2023-02-22T03:12:31;2.40;99.90
1568;DHT22;777;47.156;8.326;2023-02-22T03:15:11;2.40;99.90
1568;DHT22;777;47.156;8.326;2023-02-22T03:17:46;2.40;99.90
1568;DHT22;777;47.156;8.326;2023-02-22T03:20:21;2.40;99.90
1568;DHT22;777;47.156;8.326;2023-02-22T03:23:00;2.30;99.90
1568;DHT22;777;47.156;8.326;2023-02-22T03:25:35;2.30;99.90
1568;DHT22;777;47.156;8.326;2023-02-22T03:28:07;2.40;99.90
1568;DHT22;777;47.156;8.326;2023-02-22T03:30:38;2.40;99.90
1568;DHT22;777;47.156;8.326;2023-02-22T03:33:10;2.40;99.90
1568;DHT22;777;47.156;8.326;2023-02-22T03:35:43;2.40;99.90
1568;DHT22;777;47.156;8.326;2023-02-22T03:38:15;2.40;99.90
1568;DHT22;777;47.156;8.326;2023-02-22T03:40:50;2.60;99.90
1568;DHT22;777;47.156;8.326;2023-02-22T03:43:23;2.60;99.90
1568;DHT22;777;47.156;8.326;2023-02-22T03:45:54;2.70;99.90
1568;DHT22;777;47.156;8.326;2023-02-22T03:48:27;2.60;99.90
1568;DHT22;777;47.156;8.326;2023-02-22T03:51:00;2.60;99.90
1568;DHT22;777;47.156;8.326;2023-02-22T03:53:30;2.60;99.90
1568;DHT22;777;47.156;8.326;2023-02-22T03:55:59;2.60;99.90
1568;DHT22;777;47.156;8.326;2023-02-22T03:58:29;2.60;99.90
1568;DHT22;777;47.156;8.326;2023-02-22T04:00:57;2.70;99.90
1568;DHT22;777;47.156;8.326;2023-02-22T04:03:24;2.80;99.90
1568;DHT22;777;47.156;8.326;2023-02-22T04:05:51;2.90;99.90
1568;DHT22;777;47.156;8.326;2023-02-22T04:08:21;2.80;99.90
1568;DHT22;777;47.156;8.326;2023-02-22T04:10:48;2.90;99.90
1568;DHT22;777;47.156;8.326;2023-02-22T04:13:20;2.70;99.90
1568;DHT22;777;47.156;8.326;2023-02-22T04:15:49;2.60;99.90
1568;DHT22;777;47.156;8.326;2023-02-22T04:18:16;2.50;99.90
1568;DHT22;777;47.156;8.326;2023-02-22T04:20:45;2.30;99.90
1568;DHT22;777;47.156;8.326;2023-02-22T04:23:21;2.30;99.90
1568;DHT22;777;47.156;8.326;2023-02-22T04:25:48;2.40;99.90
1568;DHT22;777;47.156;8.326;2023-02-22T04:28:16;2.50;99.90
1568;DHT22;777;47.156;8.326;2023-02-22T04:30:49;2.60;99.90
1568;DHT22;777;47.156;8.326;2023-02-22T04:33:18;2.60;99.90
1568;DHT22;777;47.156;8.326;2023-02-22T04:35:45;2.60;99.90
1568;DHT22;777;47.156;8.326;2023-02-22T04:38:12;2.50;99.90
1568;DHT22;777;47.156;8.326;2023-02-22T04:40:41;2.30;99.90
1568;DHT22;777;47.156;8.326;2023-02-22T04:43:08;2.10;99.90
1568;DHT22;777;47.156;8.326;2023-02-22T04:45:35;2.20;99.90
1568;DHT22;777;47.156;8.326;2023-02-22T04:48:04;2.30;99.90
1568;DHT22;777;47.156;8.326;2023-02-22T04:50:31;2.30;99.90
1568;DHT22;777;47.156;8.326;2023-02-22T04:52:58;2.50;99.90
1568;DHT22;777;47.156;8.326;2023-02-22T04:55:25;2.50;99.90
1568;DHT22;777;47.156;8.326;2023-02-22T04:57:54;2.50;99.90
1568;DHT22;777;47.156;8.326;2023-02-22T05:04:08;2.40;99.90
1568;DHT22;777;47.156;8.326;2023-02-22T05:06:35;2.50;99.90
1568;DHT22;777;47.156;8.326;2023-02-22T05:09:02;2.60;99.90
1568;DHT22;777;47.156;8.326;2023-02-22T05:11:29;2.60;99.90
1568;DHT22;777;47.156;8.326;2023-02-22T05:13:58;2.60;99.90
1568;DHT22;777;47.156;8.326;2023-02-22T05:16:25;2.60;99.90
1568;DHT22;777;47.156;8.326;2023-02-22T05:18:52;2.50;99.90
1568;DHT22;777;47.156;8.326;2023-02-22T05:21:19;2.40;99.90
1568;DHT22;777;47.156;8.326;2023-02-22T05:23:46;2.30;99.90
1568;DHT22;777;47.156;8.326;2023-02-22T05:26:13;2.30;99.90
1568;DHT22;777;47.156;8.326;2023-02-22T05:28:40;2.30;99.90
1568;DHT22;777;47.156;8.326;2023-02-22T05:31:09;2.30;99.90
1568;DHT22;777;47.156;8.326;2023-02-22T05:33:36;2.40;99.90
1568;DHT22;777;47.156;8.326;2023-02-22T05:36:05;2.40;99.90
1568;DHT22;777;47.156;8.326;2023-02-22T05:38:33;2.40;99.90
1568;DHT22;777;47.156;8.326;2023-02-22T05:41:00;2.40;99.90
1568;DHT22;777;47.156;8.326;2023-02-22T05:43:27;2.50;99.90
1568;DHT22;777;47.156;8.326;2023-02-22T05:45:54;2.40;99.90
1568;DHT22;777;47.156;8.326;2023-02-22T05:48:22;2.50;99.90
1568;DHT22;777;47.156;8.326;2023-02-22T05:50:49;2.40;99.90
1568;DHT22;777;47.156;8.326;2023-02-22T05:53:16;2.40;99.90
1568;DHT22;777;47.156;8.326;2023-02-22T05:55:43;2.40;99.90
1568;DHT22;777;47.156;8.326;2023-02-22T05:58:10;2.40;99.90
1568;DHT22;777;47.156;8.326;2023-02-22T06:00:37;2.30;99.90
1568;DHT22;777;47.156;8.326;2023-02-22T06:03:06;2.10;99.90
1568;DHT22;777;47.156;8.326;2023-02-22T06:05:36;2.00;99.90
1568;DHT22;777;47.156;8.326;2023-02-22T06:08:04;2.00;99.90
1568;DHT22;777;47.156;8.326;2023-02-22T06:10:31;1.90;99.90
1568;DHT22;777;47.156;8.326;2023-02-22T06:12:59;2.00;99.90
1568;DHT22;777;47.156;8.326;2023-02-22T06:15:27;2.00;99.90
1568;DHT22;777;47.156;8.326;2023-02-22T06:17:55;1.90;99.90
1568;DHT22;777;47.156;8.326;2023-02-22T06:20:25;1.90;99.90
1568;DHT22;777;47.156;8.326;2023-02-22T06:22:55;2.00;99.90
1568;DHT22;777;47.156;8.326;2023-02-22T06:25:24;2.10;99.90
1568;DHT22;777;47.156;8.326;2023-02-22T06:27:52;2.20;99.90
1568;DHT22;777;47.156;8.326;2023-02-22T06:30:21;2.30;99.90
1568;DHT22;777;47.156;8.326;2023-02-22T06:32:48;2.30;99.90
1568;DHT22;777;47.156;8.326;2023-02-22T06:35:16;2.40;99.90
1568;DHT22;777;47.156;8.326;2023-02-22T06:37:43;2.50;99.90
1568;DHT22;777;47.156;8.326;2023-02-22T06:40:13;2.50;99.90
1568;DHT22;777;47.156;8.326;2023-02-22T06:42:40;2.60;99.90
1568;DHT22;777;47.156;8.326;2023-02-22T06:45:08;2.60;99.90
1568;DHT22;777;47.156;8.326;2023-02-22T06:47:37;2.70;99.90
1568;DHT22;777;47.156;8.326;2023-02-22T06:50:07;2.60;99.90
1568;DHT22;777;47.156;8.326;2023-02-22T06:52:34;2.50;99.90
1568;DHT22;777;47.156;8.326;2023-02-22T06:55:01;2.60;99.90
1568;DHT22;777;47.156;8.326;2023-02-22T06:57:29;2.60;99.90
1568;DHT22;777;47.156;8.326;2023-02-22T06:59:56;2.70;99.90
1568;DHT22;777;47.156;8.326;2023-02-22T07:02:23;2.70;99.90
1568;DHT22;777;47.156;8.326;2023-02-22T07:04:51;2.60;99.90
1568;DHT22;777;47.156;8.326;2023-02-22T07:07:21;2.60;99.90
1568;DHT22;777;47.156;8.326;2023-02-22T07:09:49;3.00;99.90
1568;DHT22;777;47.156;8.326;2023-02-22T07:12:17;3.30;99.90
1568;DHT22;777;47.156;8.326;2023-02-22T07:14:45;3.40;99.90
1568;DHT22;777;47.156;8.326;2023-02-22T07:17:12;3.70;99.90
1568;DHT22;777;47.156;8.326;2023-02-22T07:19:39;4.10;99.90
1568;DHT22;777;47.156;8.326;2023-02-22T07:22:06;4.50;99.90
1568;DHT22;777;47.156;8.326;2023-02-22T07:24:33;5.20;99.90
1568;DHT22;777;47.156;8.326;2023-02-22T07:27:00;5.70;99.90
1568;DHT22;777;47.156;8.326;2023-02-22T07:29:27;5.90;99.90
1568;DHT22;777;47.156;8.326;2023-02-22T07:31:57;6.40;99.90
1568;DHT22;777;47.156;8.326;2023-02-22T07:34:24;6.90;99.90
1568;DHT22;777;47.156;8.326;2023-02-22T07:36:51;7.60;99.90
1568;DHT22;777;47.156;8.326;2023-02-22T07:39:18;8.10;99.90
1568;DHT22;777;47.156;8.326;2023-02-22T07:41:45;8.30;99.90
1568;DHT22;777;47.156;8.326;2023-02-22T07:44:22;9.00;99.90
1568;DHT22;777;47.156;8.326;2023-02-22T07:46:49;9.70;99.90
1568;DHT22;777;47.156;8.326;2023-02-22T07:49:17;10.00;99.90
1568;DHT22;777;47.156;8.326;2023-02-22T07:51:44;10.20;99.90
1568;DHT22;777;47.156;8.326;2023-02-22T07:54:11;10.70;99.90
1568;DHT22;777;47.156;8.326;2023-02-22T07:56:44;10.70;99.90
1568;DHT22;777;47.156;8.326;2023-02-22T07:59:11;11.10;99.90
1568;DHT22;777;47.156;8.326;2023-02-22T08:01:38;11.30;99.90
1568;DHT22;777;47.156;8.326;2023-02-22T08:04:05;11.90;99.90
1568;DHT22;777;47.156;8.326;2023-02-22T08:06:34;12.40;99.90
1568;DHT22;777;47.156;8.326;2023-02-22T08:09:01;12.50;99.90
1568;DHT22;777;47.156;8.326;2023-02-22T08:11:27;12.70;99.90
1568;DHT22;777;47.156;8.326;2023-02-22T08:13:54;13.40;99.90
1568;DHT22;777;47.156;8.326;2023-02-22T08:16:21;13.70;99.90
1568;DHT22;777;47.156;8.326;2023-02-22T08:18:48;14.00;99.90
1568;DHT22;777;47.156;8.326;2023-02-22T08:21:15;14.50;99.90
1568;DHT22;777;47.156;8.326;2023-02-22T08:23:44;14.70;99.90
1568;DHT22;777;47.156;8.326;2023-02-22T08:26:11;15.10;99.90
1568;DHT22;777;47.156;8.326;2023-02-22T08:28:43;15.40;99.90
1568;DHT22;777;47.156;8.326;2023-02-22T08:31:10;15.40;99.90
1568;DHT22;777;47.156;8.326;2023-02-22T08:33:37;15.70;99.90
1568;DHT22;777;47.156;8.326;2023-02-22T08:36:05;16.10;99.90
1568;DHT22;777;47.156;8.326;2023-02-22T08:38:32;16.30;99.90
1568;DHT22;777;47.156;8.326;2023-02-22T08:41:00;16.70;99.90
1568;DHT22;777;47.156;8.326;2023-02-22T08:43:27;16.70;99.90
1568;DHT22;777;47.156;8.326;2023-02-22T08:45:55;17.30;99.90
1568;DHT22;777;47.156;8.326;2023-02-22T08:48:22;18.10;99.90
1568;DHT22;777;47.156;8.326;2023-02-22T08:50:49;17.90;99.90
1568;DHT22;777;47.156;8.326;2023-02-22T08:53:16;18.10;99.90
1568;DHT22;777;47.156;8.326;2023-02-22T08:55:44;18.30;99.90
1568;DHT22;777;47.156;8.326;2023-02-22T08:58:13;17.80;99.90
1568;DHT22;777;47.156;8.326;2023-02-22T09:00:40;17.80;99.90
1568;DHT22;777;47.156;8.326;2023-02-22T09:03:10;17.80;99.90
1568;DHT22;777;47.156;8.326;2023-02-22T09:05:39;18.10;99.90
1568;DHT22;777;47.156;8.326;2023-02-22T09:08:06;18.30;99.90
1568;DHT22;777;47.156;8.326;2023-02-22T09:10:34;18.60;99.90
1568;DHT22;777;47.156;8.326;2023-02-22T09:13:01;18.90;99.90
1568;DHT22;777;47.156;8.326;2023-02-22T09:15:31;18.50;99.90
1568;DHT22;777;47.156;8.326;2023-02-22T09:18:00;18.60;99.90
1568;DHT22;777;47.156;8.326;2023-02-22T09:20:28;18.50;99.90
1568;DHT22;777;47.156;8.326;2023-02-22T09:22:56;18.40;99.90
1568;DHT22;777;47.156;8.326;2023-02-22T09:25:23;18.00;99.90
1568;DHT22;777;47.156;8.326;2023-02-22T09:27:51;18.60;99.90
1568;DHT22;777;47.156;8.326;2023-02-22T09:30:23;18.20;99.90
1568;DHT22;777;47.156;8.326;2023-02-22T09:32:53;18.60;99.90
1568;DHT22;777;47.156;8.326;2023-02-22T09:35:21;19.00;99.90
1568;DHT22;777;47.156;8.326;2023-02-22T09:37:53;19.00;99.90
1568;DHT22;777;47.156;8.326;2023-02-22T09:40:20;19.30;99.90
1568;DHT22;777;47.156;8.326;2023-02-22T09:42:59;19.50;99.90
1568;DHT22;777;47.156;8.326;2023-02-22T09:45:32;19.40;99.90
1568;DHT22;777;47.156;8.326;2023-02-22T09:48:05;18.80;99.90
1568;DHT22;777;47.156;8.326;2023-02-22T09:50:36;18.30;99.90
1568;DHT22;777;47.156;8.326;2023-02-22T09:53:09;18.20;99.90
1568;DHT22;777;47.156;8.326;2023-02-22T09:55:45;18.60;99.90
1568;DHT22;777;47.156;8.326;2023-02-22T09:58:19;18.10;99.90
1568;DHT22;777;47.156;8.326;2023-02-22T10:00:48;18.00;99.90
1568;DHT22;777;47.156;8.326;2023-02-22T10:03:23;18.20;99.90
1568;DHT22;777;47.156;8.326;2023-02-22T10:05:57;18.60;99.20
1568;DHT22;777;47.156;8.326;2023-02-22T10:08:27;19.10;99.00
1568;DHT22;777;47.156;8.326;2023-02-22T10:11:04;19.20;98.50
1568;DHT22;777;47.156;8.326;2023-02-22T10:13:42;19.00;97.80
1568;DHT22;777;47.156;8.326;2023-02-22T10:16:21;18.90;97.30
1568;DHT22;777;47.156;8.326;2023-02-22T10:19:09;19.10;95.70
1568;DHT22;777;47.156;8.326;2023-02-22T10:21:46;19.30;96.70
1568;DHT22;777;47.156;8.326;2023-02-22T10:24:24;19.70;95.30
1568;DHT22;777;47.156;8.326;2023-02-22T10:26:54;19.50;94.10
1568;DHT22;777;47.156;8.326;2023-02-22T10:29:29;19.20;95.00
1568;DHT22;777;47.156;8.326;2023-02-22T10:32:00;17.60;96.80
1568;DHT22;777;47.156;8.326;2023-02-22T10:34:30;17.50;98.20
1568;DHT22;777;47.156;8.326;2023-02-22T10:37:11;18.10;98.80
1568;DHT22;777;47.156;8.326;2023-02-22T10:39:43;18.20;98.90
1568;DHT22;777;47.156;8.326;2023-02-22T10:42:11;18.00;98.90
1568;DHT22;777;47.156;8.326;2023-02-22T10:44:38;18.90;99.40
1568;DHT22;777;47.156;8.326;2023-02-22T10:47:09;19.40;99.40
1568;DHT22;777;47.156;8.326;2023-02-22T10:49:42;20.30;99.90
1568;DHT22;777;47.156;8.326;2023-02-22T10:52:12;21.20;98.80
1568;DHT22;777;47.156;8.326;2023-02-22T10:54:43;20.90;98.80
1568;DHT22;777;47.156;8.326;2023-02-22T10:57:12;20.60;98.30
1568;DHT22;777;47.156;8.326;2023-02-22T10:59:40;21.20;98.80
1568;DHT22;777;47.156;8.326;2023-02-22T11:02:18;22.30;98.20
1568;DHT22;777;47.156;8.326;2023-02-22T11:04:48;22.60;97.00
1568;DHT22;777;47.156;8.326;2023-02-22T11:07:19;22.90;96.50
1568;DHT22;777;47.156;8.326;2023-02-22T11:09:50;22.80;96.30
1568;DHT22;777;47.156;8.326;2023-02-22T11:12:19;22.50;95.70
1568;DHT22;777;47.156;8.326;2023-02-22T11:14:47;22.40;96.20
1568;DHT22;777;47.156;8.326;2023-02-22T11:17:26;22.30;96.30
1568;DHT22;777;47.156;8.326;2023-02-22T11:19:56;22.50;95.80
1568;DHT22;777;47.156;8.326;2023-02-22T11:22:26;23.20;95.70
1568;DHT22;777;47.156;8.326;2023-02-22T11:24:58;23.50;94.90
1568;DHT22;777;47.156;8.326;2023-02-22T11:27:34;23.10;94.20
1568;DHT22;777;47.156;8.326;2023-02-22T11:30:16;23.60;94.70
1568;DHT22;777;47.156;8.326;2023-02-22T11:32:46;24.00;94.20
1568;DHT22;777;47.156;8.326;2023-02-22T11:35:34;23.50;93.40
1568;DHT22;777;47.156;8.326;2023-02-22T11:38:10;23.50;93.20
1568;DHT22;777;47.156;8.326;2023-02-22T11:40:37;24.00;92.90
1568;DHT22;777;47.156;8.326;2023-02-22T11:43:11;23.80;92.40
1568;DHT22;777;47.156;8.326;2023-02-22T11:45:58;22.60;92.20
1568;DHT22;777;47.156;8.326;2023-02-22T11:48:28;20.30;94.20
1568;DHT22;777;47.156;8.326;2023-02-22T11:51:10;20.40;95.60
1568;DHT22;777;47.156;8.326;2023-02-22T11:53:49;21.00;95.60
1568;DHT22;777;47.156;8.326;2023-02-22T11:56:24;22.00;95.00
1568;DHT22;777;47.156;8.326;2023-02-22T11:58:58;22.70;94.40
1568;DHT22;777;47.156;8.326;2023-02-22T12:01:32;22.40;93.60
1568;DHT22;777;47.156;8.326;2023-02-22T12:07:12;22.50;93.90
1568;DHT22;777;47.156;8.326;2023-02-22T12:09:45;22.30;93.80
1568;DHT22;777;47.156;8.326;2023-02-22T12:12:22;22.40;93.90
1568;DHT22;777;47.156;8.326;2023-02-22T12:14:57;22.90;93.80
1568;DHT22;777;47.156;8.326;2023-02-22T12:17:38;21.90;93.20
1568;DHT22;777;47.156;8.326;2023-02-22T12:20:15;22.00;94.00
1568;DHT22;777;47.156;8.326;2023-02-22T12:22:57;22.40;94.50
1568;DHT22;777;47.156;8.326;2023-02-22T12:25:30;22.70;94.00
1568;DHT22;777;47.156;8.326;2023-02-22T12:28:01;21.50;94.40
1568;DHT22;777;47.156;8.326;2023-02-22T12:30:32;20.10;96.80
1568;DHT22;777;47.156;8.326;2023-02-22T12:33:03;19.40;98.10
1568;DHT22;777;47.156;8.326;2023-02-22T12:35:34;19.20;99.10
1568;DHT22;777;47.156;8.326;2023-02-22T12:38:09;19.60;99.00
1568;DHT22;777;47.156;8.326;2023-02-22T12:40:45;20.70;97.90
1568;DHT22;777;47.156;8.326;2023-02-22T12:43:17;22.00;96.30
1568;DHT22;777;47.156;8.326;2023-02-22T12:45:50;22.70;95.20
1568;DHT22;777;47.156;8.326;2023-02-22T12:48:33;23.40;94.40
1568;DHT22;777;47.156;8.326;2023-02-22T12:51:10;24.00;93.30
1568;DHT22;777;47.156;8.326;2023-02-22T12:53:45;24.50;92.40
1568;DHT22;777;47.156;8.326;2023-02-22T12:56:21;24.90;92.00
1568;DHT22;777;47.156;8.326;2023-02-22T12:58:54;25.10;91.00
1568;DHT22;777;47.156;8.326;2023-02-22T13:01:27;25.30;90.60
1568;DHT22;777;47.156;8.326;2023-02-22T13:03:55;25.20;89.60
1568;DHT22;777;47.156;8.326;2023-02-22T13:06:35;25.20;89.50
1568;DHT22;777;47.156;8.326;2023-02-22T13:09:28;24.60;88.80
1568;DHT22;777;47.156;8.326;2023-02-22T13:12:00;23.60;90.10
1568;DHT22;777;47.156;8.326;2023-02-22T13:14:39;22.60;90.90
1568;DHT22;777;47.156;8.326;2023-02-22T13:17:17;22.50;91.30
1568;DHT22;777;47.156;8.326;2023-02-22T13:19:50;22.30;91.70
1568;DHT22;777;47.156;8.326;2023-02-22T13:22:21;22.40;91.40
1568;DHT22;777;47.156;8.326;2023-02-22T13:24:58;22.30;91.50
1568;DHT22;777;47.156;8.326;2023-02-22T13:27:32;22.00;91.90
1568;DHT22;777;47.156;8.326;2023-02-22T13:30:05;21.40;92.20
1568;DHT22;777;47.156;8.326;2023-02-22T13:32:50;21.40;92.80
1568;DHT22;777;47.156;8.326;2023-02-22T13:36:01;21.30;93.00
1568;DHT22;777;47.156;8.326;2023-02-22T13:38:58;21.30;92.90
1568;DHT22;777;47.156;8.326;2023-02-22T13:41:42;21.00;93.60
1568;DHT22;777;47.156;8.326;2023-02-22T13:44:40;21.00;94.20
1568;DHT22;777;47.156;8.326;2023-02-22T13:47:49;20.80;94.40
1568;DHT22;777;47.156;8.326;2023-02-22T13:53:40;20.90;94.20
1568;DHT22;777;47.156;8.326;2023-02-22T13:56:09;20.40;94.30
1568;DHT22;777;47.156;8.326;2023-02-22T13:58:49;19.70;94.80
1568;DHT22;777;47.156;8.326;2023-02-22T14:01:39;19.50;95.70
1568;DHT22;777;47.156;8.326;2023-02-22T14:04:32;19.30;96.60
1568;DHT22;777;47.156;8.326;2023-02-22T14:07:00;19.30;96.50
1568;DHT22;777;47.156;8.326;2023-02-22T14:09:43;19.20;96.70
1568;DHT22;777;47.156;8.326;2023-02-22T14:15:15;18.40;98.00
1568;DHT22;777;47.156;8.326;2023-02-22T14:17:43;18.00;98.70
1568;DHT22;777;47.156;8.326;2023-02-22T14:20:21;17.60;99.50
1568;DHT22;777;47.156;8.326;2023-02-22T14:22:55;17.30;99.90
1568;DHT22;777;47.156;8.326;2023-02-22T14:25:35;16.90;99.90
1568;DHT22;777;47.156;8.326;2023-02-22T14:28:04;16.80;99.90
1568;DHT22;777;47.156;8.326;2023-02-22T14:30:35;16.60;99.90
1568;DHT22;777;47.156;8.326;2023-02-22T14:33:05;16.30;99.90
1568;DHT22;777;47.156;8.326;2023-02-22T14:35:54;16.10;99.90
1568;DHT22;777;47.156;8.326;2023-02-22T14:38:21;15.80;99.90
1568;DHT22;777;47.156;8.326;2023-02-22T14:40:48;15.80;99.90
1568;DHT22;777;47.156;8.326;2023-02-22T14:43:19;15.60;99.90
1568;DHT22;777;47.156;8.326;2023-02-22T14:45:50;15.50;99.90
1568;DHT22;777;47.156;8.326;2023-02-22T14:48:22;15.40;99.90
1568;DHT22;777;47.156;8.326;2023-02-22T14:50:55;15.40;99.90
1568;DHT22;777;47.156;8.326;2023-02-22T14:53:27;15.30;99.90
1568;DHT22;777;47.156;8.326;2023-02-22T14:55:58;15.30;99.90
1568;DHT22;777;47.156;8.326;2023-02-22T14:58:33;15.20;99.90
1568;DHT22;777;47.156;8.326;2023-02-22T15:01:21;15.20;99.90
1568;DHT22;777;47.156;8.326;2023-02-22T15:03:48;15.00;99.90
1568;DHT22;777;47.156;8.326;2023-02-22T15:06:19;14.90;99.90
1568;DHT22;777;47.156;8.326;2023-02-22T15:09:03;14.80;99.90
1568;DHT22;777;47.156;8.326;2023-02-22T15:11:31;14.80;99.90
1568;DHT22;777;47.156;8.326;2023-02-22T15:13:59;14.40;99.90
1568;DHT22;777;47.156;8.326;2023-02-22T15:16:29;14.40;99.90
1568;DHT22;777;47.156;8.326;2023-02-22T15:18:58;14.40;99.90
1568;DHT22;777;47.156;8.326;2023-02-22T15:21:27;14.40;99.90
1568;DHT22;777;47.156;8.326;2023-02-22T15:23:58;14.30;99.90
1568;DHT22;777;47.156;8.326;2023-02-22T15:26:30;14.20;99.90
1568;DHT22;777;47.156;8.326;2023-02-22T15:29:01;14.00;99.90
1568;DHT22;777;47.156;8.326;2023-02-22T15:31:34;13.90;99.90
1568;DHT22;777;47.156;8.326;2023-02-22T15:34:19;13.90;99.90
1568;DHT22;777;47.156;8.326;2023-02-22T15:36:52;13.80;99.90
1568;DHT22;777;47.156;8.326;2023-02-22T15:39:23;13.60;99.90
1568;DHT22;777;47.156;8.326;2023-02-22T15:42:07;13.50;99.90
1568;DHT22;777;47.156;8.326;2023-02-22T15:44:36;13.40;99.90
1568;DHT22;777;47.156;8.326;2023-02-22T15:47:03;13.20;99.90
1568;DHT22;777;47.156;8.326;2023-02-22T15:49:31;13.10;99.90
1568;DHT22;777;47.156;8.326;2023-02-22T15:52:13;13.00;99.90
1568;DHT22;777;47.156;8.326;2023-02-22T15:54:46;12.90;99.90
1568;DHT22;777;47.156;8.326;2023-02-22T15:57:16;12.70;99.90
1568;DHT22;777;47.156;8.326;2023-02-22T15:59:49;12.40;99.90
1568;DHT22;777;47.156;8.326;2023-02-22T16:02:22;12.20;99.90
1568;DHT22;777;47.156;8.326;2023-02-22T16:04:57;12.20;99.90
1568;DHT22;777;47.156;8.326;2023-02-22T16:07:29;12.10;99.90
1568;DHT22;777;47.156;8.326;2023-02-22T16:09:57;12.10;99.90
1568;DHT22;777;47.156;8.326;2023-02-22T16:12:33;12.10;99.90
1568;DHT22;777;47.156;8.326;2023-02-22T16:15:00;12.10;99.90
1568;DHT22;777;47.156;8.326;2023-02-22T16:17:34;12.00;99.90
1568;DHT22;777;47.156;8.326;2023-02-22T16:20:31;11.90;99.90
1568;DHT22;777;47.156;8.326;2023-02-22T16:23:21;11.70;99.90
1568;DHT22;777;47.156;8.326;2023-02-22T16:26:04;11.60;99.90
1568;DHT22;777;47.156;8.326;2023-02-22T16:28:32;11.40;99.90
1568;DHT22;777;47.156;8.326;2023-02-22T16:31:00;11.40;99.90
1568;DHT22;777;47.156;8.326;2023-02-22T16:33:27;11.40;99.90
1568;DHT22;777;47.156;8.326;2023-02-22T16:36:02;11.60;99.90
1568;DHT22;777;47.156;8.326;2023-02-22T16:38:32;11.60;99.90
1568;DHT22;777;47.156;8.326;2023-02-22T16:41:05;11.50;99.90
1568;DHT22;777;47.156;8.326;2023-02-22T16:43:33;11.40;99.90
1568;DHT22;777;47.156;8.326;2023-02-22T16:46:01;11.40;99.90
1568;DHT22;777;47.156;8.326;2023-02-22T16:48:29;11.40;99.90
1568;DHT22;777;47.156;8.326;2023-02-22T16:50:59;11.40;99.90
1568;DHT22;777;47.156;8.326;2023-02-22T16:53:29;11.40;99.90
1568;DHT22;777;47.156;8.326;2023-02-22T16:56:02;11.40;99.90
1568;DHT22;777;47.156;8.326;2023-02-22T16:58:32;11.30;99.90
1568;DHT22;777;47.156;8.326;2023-02-22T17:01:00;11.20;99.90
1568;DHT22;777;47.156;8.326;2023-02-22T17:03:27;11.00;99.90
1568;DHT22;777;47.156;8.326;2023-02-22T17:05:54;10.80;99.90
1568;DHT22;777;47.156;8.326;2023-02-22T17:08:21;10.80;99.90